sensor_id;sensor_type;location;lat;lon;timestamp;P1;durP1;ratioP1;P2;durP2;ratioP2
82779;SDS011;72511;45.120;20.720;2023-11-19T00:05:01;11.77;;;6.13;;
82779;SDS011;72511;45.120;20.720;2023-11-19T00:15:02;13.07;;;6.35;;
82779;SDS011;72511;45.120;20.720;2023-11-19T00:25:05;14.35;;;6.10;;
82779;SDS011;72511;45.120;20.720;2023-11-19T00:35:07;9.48;;;5.32;;
82779;SDS011;72511;45.120;20.720;2023-11-19T00:45:09;11.35;;;5.93;;
82779;SDS011;72511;45.120;20.720;2023-11-19T00:55:10;8.38;;;4.40;;
82779;SDS011;72511;45.120;20.720;2023-11-19T01:05:12;10.05;;;5.00;;
82779;SDS011;72511;45.120;20.720;2023-11-19T01:15:16;9.07;;;4.65;;
82779;SDS011;72511;45.120;20.720;2023-11-19T01:25:19;11.30;;;5.20;;
82779;SDS011;72511;45.120;20.720;2023-11-19T01:35:21;7.85;;;3.45;;
82779;SDS011;72511;45.120;20.720;2023-11-19T01:45:27;9.88;;;4.95;;
82779;SDS011;72511;45.120;20.720;2023-11-19T01:55:31;7.22;;;4.13;;
82779;SDS011;72511;45.120;20.720;2023-11-19T02:05:33;7.35;;;4.63;;
82779;SDS011;72511;45.120;20.720;2023-11-19T02:15:36;6.63;;;4.20;;
82779;SDS011;72511;45.120;20.720;2023-11-19T02:25:37;7.70;;;5.00;;
82779;SDS011;72511;45.120;20.720;2023-11-19T02:35:41;6.05;;;4.03;;
82779;SDS011;72511;45.120;20.720;2023-11-19T02:45:42;10.30;;;5.13;;
82779;SDS011;72511;45.120;20.720;2023-11-19T02:55:46;11.40;;;5.63;;
82779;SDS011;72511;45.120;20.720;2023-11-19T03:05:50;11.48;;;5.30;;
82779;SDS011;72511;45.120;20.720;2023-11-19T03:15:52;13.02;;;5.32;;
82779;SDS011;72511;45.120;20.720;2023-11-19T03:25:54;7.90;;;4.38;;
82779;SDS011;72511;45.120;20.720;2023-11-19T03:35:56;11.02;;;5.85;;
82779;SDS011;72511;45.120;20.720;2023-11-19T03:45:57;10.50;;;5.82;;
82779;SDS011;72511;45.120;20.720;2023-11-19T03:55:59;12.65;;;6.60;;
82779;SDS011;72511;45.120;20.720;2023-11-19T04:06:00;7.82;;;4.80;;
82779;SDS011;72511;45.120;20.720;2023-11-19T04:16:02;10.18;;;6.20;;
82779;SDS011;72511;45.120;20.720;2023-11-19T04:26:04;13.27;;;7.07;;
82779;SDS011;72511;45.120;20.720;2023-11-19T04:36:06;12.13;;;6.30;;
82779;SDS011;72511;45.120;20.720;2023-11-19T04:46:09;11.70;;;6.47;;
82779;SDS011;72511;45.120;20.720;2023-11-19T04:56:11;12.15;;;6.00;;
82779;SDS011;72511;45.120;20.720;2023-11-19T05:06:12;10.98;;;5.60;;
82779;SDS011;72511;45.120;20.720;2023-11-19T05:16:14;8.30;;;5.47;;
82779;SDS011;72511;45.120;20.720;2023-11-19T05:26:19;16.90;;;6.13;;
82779;SDS011;72511;45.120;20.720;2023-11-19T05:36:22;12.60;;;5.20;;
82779;SDS011;72511;45.120;20.720;2023-11-19T05:46:23;15.93;;;7.53;;
82779;SDS011;72511;45.120;20.720;2023-11-19T05:56:26;11.05;;;6.78;;
82779;SDS011;72511;45.120;20.720;2023-11-19T06:06:33;10.35;;;5.35;;
82779;SDS011;72511;45.120;20.720;2023-11-19T06:16:35;9.63;;;5.07;;
82779;SDS011;72511;45.120;20.720;2023-11-19T06:26:37;14.32;;;9.77;;
82779;SDS011;72511;45.120;20.720;2023-11-19T06:36:40;235.15;;;87.88;;
82779;SDS011;72511;45.120;20.720;2023-11-19T06:56:42;366.27;;;138.57;;
82779;SDS011;72511;45.120;20.720;2023-11-19T07:06:44;202.25;;;71.57;;
82779;SDS011;72511;45.120;20.720;2023-11-19T07:16:45;140.52;;;53.80;;
82779;SDS011;72511;45.120;20.720;2023-11-19T07:26:47;14.93;;;12.77;;
82779;SDS011;72511;45.120;20.720;2023-11-19T07:36:49;23.38;;;12.70;;
82779;SDS011;72511;45.120;20.720;2023-11-19T07:46:50;44.45;;;28.60;;
82779;SDS011;72511;45.120;20.720;2023-11-19T07:56:51;16.88;;;10.35;;
82779;SDS011;72511;45.120;20.720;2023-11-19T08:06:54;11.73;;;7.82;;
82779;SDS011;72511;45.120;20.720;2023-11-19T08:16:55;15.52;;;9.27;;
82779;SDS011;72511;45.120;20.720;2023-11-19T08:26:57;24.55;;;12.93;;
82779;SDS011;72511;45.120;20.720;2023-11-19T08:36:59;24.95;;;12.20;;
82779;SDS011;72511;45.120;20.720;2023-11-19T08:47:00;29.30;;;14.50;;
82779;SDS011;72511;45.120;20.720;2023-11-19T08:57:03;26.35;;;14.00;;
82779;SDS011;72511;45.120;20.720;2023-11-19T09:07:04;24.52;;;10.65;;
82779;SDS011;72511;45.120;20.720;2023-11-19T09:17:06;26.10;;;13.23;;
82779;SDS011;72511;45.120;20.720;2023-11-19T09:27:07;19.55;;;10.90;;
82779;SDS011;72511;45.120;20.720;2023-11-19T09:37:08;26.08;;;14.70;;
82779;SDS011;72511;45.120;20.720;2023-11-19T09:47:11;51.67;;;20.60;;
82779;SDS011;72511;45.120;20.720;2023-11-19T09:57:15;22.25;;;12.02;;
82779;SDS011;72511;45.120;20.720;2023-11-19T10:07:18;58.22;;;23.88;;
82779;SDS011;72511;45.120;20.720;2023-11-19T10:17:20;32.42;;;14.73;;
82779;SDS011;72511;45.120;20.720;2023-11-19T10:27:23;50.17;;;19.67;;
82779;SDS011;72511;45.120;20.720;2023-11-19T10:37:29;39.28;;;16.77;;
82779;SDS011;72511;45.120;20.720;2023-11-19T10:47:32;38.40;;;17.67;;
82779;SDS011;72511;45.120;20.720;2023-11-19T10:57:36;25.92;;;11.27;;
82779;SDS011;72511;45.120;20.720;2023-11-19T11:07:40;44.42;;;17.15;;
82779;SDS011;72511;45.120;20.720;2023-11-19T11:17:44;26.27;;;11.05;;
82779;SDS011;72511;45.120;20.720;2023-11-19T11:28:23;51.28;;;21.85;;
82779;SDS011;72511;45.120;20.720;2023-11-19T11:38:24;40.08;;;15.65;;
82779;SDS011;72511;45.120;20.720;2023-11-19T11:48:26;28.02;;;12.73;;
82779;SDS011;72511;45.120;20.720;2023-11-19T11:58:32;167.13;;;55.13;;
82779;SDS011;72511;45.120;20.720;2023-11-19T12:08:34;52.65;;;23.60;;
82779;SDS011;72511;45.120;20.720;2023-11-19T12:18:36;44.45;;;23.73;;
82779;SDS011;72511;45.120;20.720;2023-11-19T12:28:40;51.50;;;24.75;;
82779;SDS011;72511;45.120;20.720;2023-11-19T12:38:41;22.90;;;12.50;;
82779;SDS011;72511;45.120;20.720;2023-11-19T12:48:43;34.67;;;14.95;;
82779;SDS011;72511;45.120;20.720;2023-11-19T12:58:44;59.33;;;27.73;;
82779;SDS011;72511;45.120;20.720;2023-11-19T13:08:47;49.50;;;24.65;;
82779;SDS011;72511;45.120;20.720;2023-11-19T13:18:51;24.60;;;12.00;;
82779;SDS011;72511;45.120;20.720;2023-11-19T13:28:52;17.05;;;8.63;;
82779;SDS011;72511;45.120;20.720;2023-11-19T13:38:53;56.22;;;24.33;;
82779;SDS011;72511;45.120;20.720;2023-11-19T13:48:59;18.00;;;8.70;;
82779;SDS011;72511;45.120;20.720;2023-11-19T13:59:00;15.18;;;8.07;;
82779;SDS011;72511;45.120;20.720;2023-11-19T14:09:02;23.42;;;12.30;;
82779;SDS011;72511;45.120;20.720;2023-11-19T14:19:07;21.42;;;9.98;;
82779;SDS011;72511;45.120;20.720;2023-11-19T14:29:09;23.55;;;11.43;;
82779;SDS011;72511;45.120;20.720;2023-11-19T14:39:11;28.48;;;14.55;;
82779;SDS011;72511;45.120;20.720;2023-11-19T14:49:12;49.70;;;21.45;;
82779;SDS011;72511;45.120;20.720;2023-11-19T14:59:14;91.47;;;36.60;;
82779;SDS011;72511;45.120;20.720;2023-11-19T15:09:19;61.63;;;27.17;;
82779;SDS011;72511;45.120;20.720;2023-11-19T15:19:21;89.20;;;38.53;;
82779;SDS011;72511;45.120;20.720;2023-11-19T15:29:23;86.55;;;38.90;;
82779;SDS011;72511;45.120;20.720;2023-11-19T15:39:24;98.50;;;46.80;;
82779;SDS011;72511;45.120;20.720;2023-11-19T15:49:27;136.95;;;58.28;;
82779;SDS011;72511;45.120;20.720;2023-11-19T15:59:28;238.90;;;99.72;;
82779;SDS011;72511;45.120;20.720;2023-11-19T16:09:30;196.38;;;87.82;;
82779;SDS011;72511;45.120;20.720;2023-11-19T16:19:31;148.70;;;62.50;;
82779;SDS011;72511;45.120;20.720;2023-11-19T16:29:35;115.95;;;53.80;;
82779;SDS011;72511;45.120;20.720;2023-11-19T16:39:36;197.23;;;88.55;;
82779;SDS011;72511;45.120;20.720;2023-11-19T16:49:38;85.80;;;40.58;;
82779;SDS011;72511;45.120;20.720;2023-11-19T16:59:39;85.53;;;36.88;;
82779;SDS011;72511;45.120;20.720;2023-11-19T17:09:40;107.00;;;39.75;;
82779;SDS011;72511;45.120;20.720;2023-11-19T17:19:43;70.05;;;28.90;;
82779;SDS011;72511;45.120;20.720;2023-11-19T17:29:44;106.55;;;38.47;;
82779;SDS011;72511;45.120;20.720;2023-11-19T17:39:45;85.05;;;38.78;;
82779;SDS011;72511;45.120;20.720;2023-11-19T17:49:47;54.50;;;29.50;;
82779;SDS011;72511;45.120;20.720;2023-11-19T17:59:49;60.55;;;25.48;;
82779;SDS011;72511;45.120;20.720;2023-11-19T18:09:51;49.63;;;22.73;;
82779;SDS011;72511;45.120;20.720;2023-11-19T18:19:53;54.92;;;22.70;;
82779;SDS011;72511;45.120;20.720;2023-11-19T18:29:54;42.08;;;19.20;;
82779;SDS011;72511;45.120;20.720;2023-11-19T18:39:56;43.08;;;20.58;;
82779;SDS011;72511;45.120;20.720;2023-11-19T18:49:57;39.03;;;20.75;;
82779;SDS011;72511;45.120;20.720;2023-11-19T18:59:58;55.00;;;25.33;;
82779;SDS011;72511;45.120;20.720;2023-11-19T19:10:00;65.60;;;28.45;;
82779;SDS011;72511;45.120;20.720;2023-11-19T19:20:03;168.88;;;60.35;;
82779;SDS011;72511;45.120;20.720;2023-11-19T19:30:05;155.07;;;55.40;;
82779;SDS011;72511;45.120;20.720;2023-11-19T19:40:10;223.52;;;72.18;;
82779;SDS011;72511;45.120;20.720;2023-11-19T19:50:12;103.65;;;43.83;;
82779;SDS011;72511;45.120;20.720;2023-11-19T20:00:14;217.75;;;84.55;;
82779;SDS011;72511;45.120;20.720;2023-11-19T20:10:15;97.70;;;46.17;;
82779;SDS011;72511;45.120;20.720;2023-11-19T20:20:18;116.78;;;46.60;;
82779;SDS011;72511;45.120;20.720;2023-11-19T20:40:20;108.40;;;42.55;;
82779;SDS011;72511;45.120;20.720;2023-11-19T20:50:22;109.82;;;42.90;;
82779;SDS011;72511;45.120;20.720;2023-11-19T21:00:25;45.03;;;23.85;;
82779;SDS011;72511;45.120;20.720;2023-11-19T21:10:28;50.70;;;23.40;;
82779;SDS011;72511;45.120;20.720;2023-11-19T21:30:30;111.07;;;49.33;;
82779;SDS011;72511;45.120;20.720;2023-11-19T21:40:32;91.68;;;42.50;;
82779;SDS011;72511;45.120;20.720;2023-11-19T21:50:36;63.03;;;29.23;;
82779;SDS011;72511;45.120;20.720;2023-11-19T22:00:37;43.25;;;23.50;;
82779;SDS011;72511;45.120;20.720;2023-11-19T22:10:40;52.45;;;25.75;;
82779;SDS011;72511;45.120;20.720;2023-11-19T22:20:43;69.15;;;33.15;;
82779;SDS011;72511;45.120;20.720;2023-11-19T22:40:46;54.28;;;24.25;;
82779;SDS011;72511;45.120;20.720;2023-11-19T22:50:47;49.80;;;21.08;;
82779;SDS011;72511;45.120;20.720;2023-11-19T23:00:49;40.88;;;21.00;;
82779;SDS011;72511;45.120;20.720;2023-11-19T23:10:52;43.83;;;20.30;;
82779;SDS011;72511;45.120;20.720;2023-11-19T23:20:53;31.48;;;16.90;;
82779;SDS011;72511;45.120;20.720;2023-11-19T23:30:55;32.50;;;18.33;;
82779;SDS011;72511;45.120;20.720;2023-11-19T23:40:56;33.72;;;17.98;;
82779;SDS011;72511;45.120;20.720;2023-11-19T23:50:57;37.35;;;16.80;;
